Observations for Trim Patrick St
| Time | AQI | Temp °C | Hum % | Pres Pa | CO μg/m³ | H₂S μg/m³ | NO μg/m³ | NO₂ μg/m³ | O₃ μg/m³ | SO₂ μg/m³ | PM1 μg/m³ | PM2.5 μg/m³ | PM10 μg/m³ |
|---|---|---|---|---|---|---|---|---|---|---|---|---|---|
| Saturday 8 August 2026 | |||||||||||||
| 02:38 | 2 | 14.6 | 73 | 38,460 | 0.25 | 1.01 | 3.28 | 23.91 | 13.96 | 0 | 4.57 | 8.54 | 9.39 |
| 02:37 | 2 | 14.6 | 73 | 38,460 | 0.24 | 0 | 3.27 | 16.68 | 18.51 | 0 | 3.71 | 7.81 | 8.6 |
| 02:36 | 2 | 14.6 | 73 | 38,460 | 0.24 | 0 | 3.26 | 14.03 | 19.64 | 0 | 4.57 | 9.23 | 10.15 |
| 02:34 | 2 | 14.6 | 73 | 38,460 | 0.23 | 0 | 3.26 | 14.02 | 18.92 | 0 | 5.43 | 8.51 | 9.37 |
| 02:33 | 2 | 14.6 | 73 | 38,460 | 0.22 | 0 | 3.28 | 11.7 | 20.17 | 0 | 3.71 | 7.8 | 8.58 |
| 02:32 | 2 | 14.6 | 73 | 38,460 | 0.22 | 1.74 | 3.28 | 14.24 | 20.27 | 0 | 5.43 | 9.94 | 10.94 |
| 02:31 | 2 | 14.6 | 73 | 38,460 | 0.22 | 2.13 | 3.28 | 27.89 | 15.83 | 0 | 3.71 | 9.26 | 10.18 |
| 02:29 | 2 | 14.6 | 70 | 38,460 | 0.21 | 2.68 | 3.29 | 34.84 | 35.58 | 0 | 3.71 | 7.31 | 8.04 |
| 02:28 | 2 | 14.6 | 68 | 38,460 | 0.21 | 2.65 | 3.27 | 14.86 | 11.05 | 0 | 4.57 | 8.88 | 9.77 |
| 02:27 | 2 | 14.6 | 70 | 38,460 | 0.21 | 3.59 | 3.29 | 26.96 | 18.9 | 0 | 4.57 | 10.18 | 11.2 |
| 02:26 | 2 | 14.6 | 70 | 38,460 | 0.21 | 4.18 | 3.29 | 33.52 | 35.06 | 0 | 3.71 | 8.06 | 8.86 |
| 02:25 | 2 | 14.5 | 72 | 38,460 | 0.22 | 3.72 | 3.33 | 25.04 | 17.63 | 0 | 4.57 | 8.64 | 9.5 |
| 02:20 | 2 | 14.5 | 72 | 38,460 | 0.22 | 4.34 | 3.32 | 38.19 | 13.07 | 0 | 4.57 | 9.29 | 10.22 |
| 02:19 | 2 | 14.5 | 73 | 38,460 | 0.23 | 1.06 | 3.31 | 17.09 | 18.22 | 0 | 4.57 | 9.24 | 10.17 |
| 02:18 | 2 | 14.5 | 73 | 38,460 | 0.22 | 0.67 | 3.3 | 19.31 | 15.49 | 0 | 4.57 | 9.25 | 10.18 |
| 02:17 | 2 | 14.5 | 73 | 38,460 | 0.23 | 0 | 3.31 | 15.38 | 18.81 | 0 | 4.57 | 8.54 | 9.39 |
| 02:16 | 2 | 14.5 | 73 | 38,460 | 0.22 | 0 | 3.31 | 14.01 | 18.61 | 0 | 3.71 | 8.54 | 9.39 |
| 02:15 | 2 | 14.5 | 73 | 38,460 | 0.23 | 0 | 3.29 | 14.49 | 17.92 | 0 | 3.71 | 8.54 | 9.39 |
| 02:14 | 2 | 14.5 | 73 | 38,460 | 0.22 | 0 | 3.27 | 12.88 | 20.36 | 0 | 5.43 | 8.54 | 9.39 |
| 02:13 | 2 | 14.5 | 73 | 38,460 | 0.22 | 0 | 3.27 | 14.77 | 16.86 | 0 | 3.71 | 7.82 | 8.6 |